sensor_id;sensor_type;location;lat;lon;timestamp;pressure;altitude;pressure_sealevel;temperature;humidity
45939;BME280;31650;48.818;9.116;2023-02-10T00:11:51;99849.38;;;-5.71;100.00
45939;BME280;31650;48.818;9.116;2023-02-10T07:36:13;100100.38;;;-6.17;100.00
45939;BME280;31650;48.818;9.116;2023-02-10T07:51:13;100097.56;;;-5.72;100.00
45939;BME280;31650;48.818;9.116;2023-02-10T08:06:18;100083.38;;;-5.30;100.00
45939;BME280;31650;48.818;9.116;2023-02-10T08:21:18;100088.22;;;-4.81;100.00
45939;BME280;31650;48.818;9.116;2023-02-10T08:36:19;100081.28;;;-2.58;100.00
45939;BME280;31650;48.818;9.116;2023-02-10T08:51:20;100083.56;;;-0.29;100.00
45939;BME280;31650;48.818;9.116;2023-02-10T09:06:22;100062.06;;;1.42;100.00
45939;BME280;31650;48.818;9.116;2023-02-10T09:21:23;100043.97;;;2.18;100.00
45939;BME280;31650;48.818;9.116;2023-02-10T09:36:24;100048.09;;;3.93;100.00
45939;BME280;31650;48.818;9.116;2023-02-10T09:51:31;100045.50;;;2.33;100.00
45939;BME280;31650;48.818;9.116;2023-02-10T10:06:36;100034.25;;;3.97;79.13
45939;BME280;31650;48.818;9.116;2023-02-10T10:36:53;100043.25;;;5.43;58.63
45939;BME280;31650;48.818;9.116;2023-02-10T10:51:55;100035.50;;;6.19;53.99
45939;BME280;31650;48.818;9.116;2023-02-10T11:06:56;100011.69;;;6.81;51.05
45939;BME280;31650;48.818;9.116;2023-02-10T11:21:57;100029.13;;;6.30;50.41
45939;BME280;31650;48.818;9.116;2023-02-10T11:36:58;100021.78;;;6.79;52.39
45939;BME280;31650;48.818;9.116;2023-02-10T11:51:59;100020.50;;;5.86;51.51
45939;BME280;31650;48.818;9.116;2023-02-10T12:07:10;100004.34;;;6.25;52.13
45939;BME280;31650;48.818;9.116;2023-02-10T13:08:00;99953.91;;;6.82;49.83
45939;BME280;31650;48.818;9.116;2023-02-10T13:23:13;99961.91;;;6.74;51.46
45939;BME280;31650;48.818;9.116;2023-02-10T13:38:17;99953.00;;;5.67;53.90
45939;BME280;31650;48.818;9.116;2023-02-10T14:08:37;99961.69;;;4.80;56.91
45939;BME280;31650;48.818;9.116;2023-02-10T14:23:40;99965.97;;;4.82;55.28
45939;BME280;31650;48.818;9.116;2023-02-10T14:38:42;99962.66;;;4.48;54.16
45939;BME280;31650;48.818;9.116;2023-02-10T14:53:46;99968.41;;;3.69;58.87
45939;BME280;31650;48.818;9.116;2023-02-10T15:23:49;99959.25;;;3.72;59.32
45939;BME280;31650;48.818;9.116;2023-02-10T15:53:56;99952.38;;;2.23;64.33
45939;BME280;31650;48.818;9.116;2023-02-10T16:08:56;99965.91;;;1.01;68.68
45939;BME280;31650;48.818;9.116;2023-02-10T16:23:57;99971.41;;;0.23;73.09
45939;BME280;31650;48.818;9.116;2023-02-10T16:38:57;99967.63;;;-0.40;80.26
45939;BME280;31650;48.818;9.116;2023-02-10T16:53:57;99976.66;;;-0.56;84.97
45939;BME280;31650;48.818;9.116;2023-02-10T17:08:57;99995.84;;;-0.63;92.41
45939;BME280;31650;48.818;9.116;2023-02-10T17:23:58;99989.41;;;-0.47;96.85
45939;BME280;31650;48.818;9.116;2023-02-10T17:38:58;100000.59;;;-0.27;91.37
45939;BME280;31650;48.818;9.116;2023-02-10T17:53:59;100015.44;;;-0.92;97.38
45939;BME280;31650;48.818;9.116;2023-02-10T18:09:00;100029.44;;;-1.60;100.00
45939;BME280;31650;48.818;9.116;2023-02-10T18:24:00;100039.28;;;-1.46;100.00
45939;BME280;31650;48.818;9.116;2023-02-10T18:39:01;100061.75;;;-2.10;100.00
45939;BME280;31650;48.818;9.116;2023-02-10T18:54:01;100057.56;;;-1.84;100.00
45939;BME280;31650;48.818;9.116;2023-02-10T19:09:02;100067.22;;;-2.60;100.00
45939;BME280;31650;48.818;9.116;2023-02-10T19:24:02;100060.25;;;-2.78;100.00
45939;BME280;31650;48.818;9.116;2023-02-10T19:39:03;100080.22;;;-3.03;100.00
45939;BME280;31650;48.818;9.116;2023-02-10T19:54:03;100055.63;;;-1.97;100.00
45939;BME280;31650;48.818;9.116;2023-02-10T20:09:03;100063.34;;;-2.54;100.00
45939;BME280;31650;48.818;9.116;2023-02-10T20:24:04;100054.53;;;-3.04;100.00
45939;BME280;31650;48.818;9.116;2023-02-10T20:39:05;100071.31;;;-3.19;100.00
45939;BME280;31650;48.818;9.116;2023-02-10T20:54:05;100057.63;;;-3.62;100.00
45939;BME280;31650;48.818;9.116;2023-02-10T21:09:05;100053.41;;;-3.83;100.00
45939;BME280;31650;48.818;9.116;2023-02-10T21:24:06;100038.31;;;-3.15;100.00
45939;BME280;31650;48.818;9.116;2023-02-10T21:39:07;100041.03;;;-3.50;100.00
45939;BME280;31650;48.818;9.116;2023-02-10T21:54:07;100033.63;;;-3.95;100.00
45939;BME280;31650;48.818;9.116;2023-02-10T22:09:08;100009.00;;;-3.81;100.00
45939;BME280;31650;48.818;9.116;2023-02-10T22:24:10;100012.38;;;-4.13;100.00
45939;BME280;31650;48.818;9.116;2023-02-10T22:39:10;100014.84;;;-4.10;100.00
45939;BME280;31650;48.818;9.116;2023-02-10T22:54:12;100011.97;;;-4.22;100.00
45939;BME280;31650;48.818;9.116;2023-02-10T23:09:13;100017.53;;;-4.46;100.00
45939;BME280;31650;48.818;9.116;2023-02-10T23:24:14;100028.50;;;-4.35;100.00
45939;BME280;31650;48.818;9.116;2023-02-10T23:39:14;100018.19;;;-4.41;100.00
45939;BME280;31650;48.818;9.116;2023-02-10T23:54:14;100021.25;;;-4.67;100.00
